createdAt,value
2022-12-03T00:00:12.794Z,100538.75
2022-12-03T00:02:39.776Z,100541.44
2022-12-03T00:05:06.462Z,100542.00
2022-12-03T00:07:32.814Z,100543.00
2022-12-03T00:09:59.143Z,100544.59
2022-12-03T00:12:25.399Z,100540.91
2022-12-03T00:14:53.126Z,100534.56
2022-12-03T00:17:19.462Z,100538.22
2022-12-03T00:19:45.744Z,100538.03
2022-12-03T00:22:12.922Z,100536.84
2022-12-03T00:24:39.503Z,100542.09
2022-12-03T00:27:05.825Z,100532.69
2022-12-03T00:29:32.154Z,100535.22
2022-12-03T00:31:59.888Z,100531.53
2022-12-03T00:34:26.202Z,100532.38
2022-12-03T00:36:52.590Z,100530.56
2022-12-03T00:39:18.907Z,100528.75
2022-12-03T00:41:45.222Z,100530.44
2022-12-03T00:44:11.568Z,100534.94
2022-12-03T00:46:38.103Z,100537.38
2022-12-03T00:49:05.724Z,100516.81
2022-12-03T00:51:32.010Z,100528.06
2022-12-03T00:53:58.328Z,100521.47
2022-12-03T00:56:24.616Z,100518.25
2022-12-03T00:58:50.895Z,100522.78
2022-12-03T01:01:17.267Z,100520.78
2022-12-03T01:03:43.714Z,100528.00
2022-12-03T01:06:11.257Z,100527.00
2022-12-03T01:08:37.644Z,100532.38
2022-12-03T01:11:04.137Z,100527.00
2022-12-03T01:13:30.437Z,100526.50
2022-12-03T01:15:56.836Z,100525.66
2022-12-03T01:18:23.165Z,100522.56
2022-12-03T01:20:49.470Z,100527.69
2022-12-03T01:23:17.004Z,100519.63
2022-12-03T01:25:43.298Z,100532.19
2022-12-03T01:28:09.555Z,100531.22
2022-12-03T01:30:35.901Z,100519.50
2022-12-03T01:33:02.239Z,100530.25
2022-12-03T01:35:28.656Z,100522.03
2022-12-03T01:37:54.978Z,100524.88
2022-12-03T01:40:22.763Z,100529.19
2022-12-03T01:42:49.079Z,100539.59
2022-12-03T01:45:20.779Z,100540.06
2022-12-03T01:47:47.143Z,100529.06
2022-12-03T01:50:17.340Z,100536.00
2022-12-03T01:52:44.052Z,100543.94
2022-12-03T01:55:13.520Z,100535.03
2022-12-03T01:57:42.240Z,100535.03
2022-12-03T02:00:13.120Z,100533.19
2022-12-03T02:02:39.441Z,100528.66
2022-12-03T02:05:06.884Z,100525.13
2022-12-03T02:07:33.673Z,100519.25
2022-12-03T02:10:00.817Z,100510.22
2022-12-03T02:12:29.109Z,100521.38
2022-12-03T02:14:56.978Z,100516.75
2022-12-03T02:17:23.406Z,100514.91
2022-12-03T02:19:49.830Z,100511.25
2022-12-03T02:22:23.133Z,100513.09
2022-12-03T02:24:53.603Z,100514.78
2022-12-03T02:27:21.475Z,100506.59
2022-12-03T02:29:58.391Z,100511.38
2022-12-03T02:32:24.690Z,100515.00
2022-12-03T02:34:51.326Z,100509.22
2022-12-03T02:37:20.344Z,100504.44
2022-12-03T02:39:48.321Z,100502.59
2022-12-03T02:42:14.611Z,100500.75
2022-12-03T02:44:42.327Z,100492.72
2022-12-03T02:47:09.155Z,100501.50
2022-12-03T02:49:35.504Z,100499.81
2022-12-03T02:52:01.899Z,100507.72
2022-12-03T02:54:28.297Z,100501.25
2022-12-03T02:56:54.588Z,100495.09
2022-12-03T02:59:21.046Z,100489.41
2022-12-03T03:01:48.785Z,100485.59
2022-12-03T03:04:15.275Z,100489.59
2022-12-03T03:06:41.742Z,100490.44
2022-12-03T03:09:08.133Z,100487.63
2022-12-03T03:11:34.566Z,100485.66
2022-12-03T03:14:01.319Z,100483.97
2022-12-03T03:16:27.976Z,100483.97
2022-12-03T03:18:55.630Z,100477.59
2022-12-03T03:21:21.998Z,100480.28
2022-12-03T03:23:48.330Z,100481.09
2022-12-03T03:26:14.808Z,100480.50
2022-12-03T03:28:42.702Z,100478.41
2022-12-03T03:31:11.113Z,100477.41
2022-12-03T03:33:39.276Z,100478.25
2022-12-03T03:36:07.431Z,100473.63
2022-12-03T03:38:33.922Z,100474.47
2022-12-03T03:41:01.916Z,100468.84
2022-12-03T03:43:29.597Z,100468.84
2022-12-03T03:45:56.109Z,100464.44
2022-12-03T03:48:22.571Z,100472.63
2022-12-03T03:50:49.615Z,100472.81
2022-12-03T03:53:17.701Z,100474.53
2022-12-03T03:55:44.336Z,100472.31
2022-12-03T03:58:10.889Z,100472.06
2022-12-03T04:00:37.308Z,100472.16
2022-12-03T04:03:03.661Z,100479.84
2022-12-03T04:05:30.171Z,100457.66
2022-12-03T04:07:56.649Z,100472.91
2022-12-03T04:10:24.353Z,100466.69
2022-12-03T04:12:50.644Z,100466.69
2022-12-03T04:15:17.056Z,100464.44
2022-12-03T04:17:43.365Z,100463.84
2022-12-03T04:20:10.130Z,100457.47
2022-12-03T04:22:36.403Z,100453.19
2022-12-03T04:25:02.769Z,100446.47
2022-12-03T04:27:30.381Z,100448.91
2022-12-03T04:29:56.836Z,100448.16
2022-12-03T04:32:23.119Z,100445.81
2022-12-03T04:34:49.418Z,100439.84
2022-12-03T04:37:15.691Z,100450.59
2022-12-03T04:39:42.051Z,100449.75
2022-12-03T04:42:08.418Z,100451.28
2022-12-03T04:44:36.012Z,100445.06
2022-12-03T04:47:03.823Z,100439.25
2022-12-03T04:49:30.571Z,100447.25
2022-12-03T04:51:56.880Z,100448.69
2022-12-03T04:54:23.212Z,100448.41
2022-12-03T04:56:49.551Z,100451.09
2022-12-03T04:59:16.723Z,100451.09
2022-12-03T05:01:44.998Z,100441.22
2022-12-03T05:04:11.430Z,100452.69
2022-12-03T05:06:37.845Z,100448.16
2022-12-03T05:09:04.136Z,100442.78
2022-12-03T05:11:30.392Z,100452.78
2022-12-03T05:13:56.681Z,100450.69
2022-12-03T05:16:23.011Z,100441.81
2022-12-03T05:18:50.755Z,100437.25
2022-12-03T05:21:17.059Z,100423.34
2022-12-03T05:23:43.621Z,100430.16
2022-12-03T05:26:10.260Z,100433.44
2022-12-03T05:28:36.610Z,100426.22
2022-12-03T05:31:02.963Z,100428.78
2022-12-03T05:33:29.387Z,100420.84
2022-12-03T05:35:57.003Z,100423.53
2022-12-03T05:38:23.363Z,100426.97
2022-12-03T05:40:49.688Z,100410.84
2022-12-03T05:43:15.975Z,100418.66
2022-12-03T05:45:42.869Z,100416.94
2022-12-03T05:48:10.820Z,100408.00
2022-12-03T05:50:38.245Z,100403.88
2022-12-03T05:53:06.105Z,100402.75
2022-12-03T05:55:32.751Z,100397.97
2022-12-03T05:57:59.085Z,100398.81
2022-12-03T06:00:26.757Z,100397.97
2022-12-03T06:02:53.536Z,100400.28
2022-12-03T06:05:20.417Z,100394.31
2022-12-03T06:07:47.258Z,100390.66
2022-12-03T06:10:15.837Z,100394.31
2022-12-03T06:12:42.176Z,100393.19
2022-12-03T06:15:09.332Z,100391.16
2022-12-03T06:17:35.604Z,100387.19
2022-12-03T06:20:02.297Z,100393.41
2022-12-03T06:22:28.756Z,100392.28
2022-12-03T06:24:55.308Z,100397.53
2022-12-03T06:27:23.050Z,100392.16
2022-12-03T06:29:49.361Z,100395.84
2022-12-03T06:32:15.634Z,100389.47
2022-12-03T06:34:41.935Z,100392.84
2022-12-03T06:37:08.336Z,100390.31
2022-12-03T06:39:34.731Z,100391.06
2022-12-03T06:42:01.019Z,100389.06
2022-12-03T06:44:28.665Z,100389.22
2022-12-03T06:46:55.088Z,100390.00
2022-12-03T06:49:21.453Z,100392.09
2022-12-03T06:51:47.819Z,100390.84
2022-12-03T06:54:14.246Z,100380.97
2022-12-03T06:56:45.095Z,100390.72
2022-12-03T06:59:11.914Z,100388.63
2022-12-03T07:01:39.962Z,100389.75
2022-12-03T07:04:06.265Z,100382.28
2022-12-03T07:06:32.593Z,100387.78
2022-12-03T07:08:59.029Z,100373.38
2022-12-03T07:11:25.404Z,100381.53
2022-12-03T07:13:51.696Z,100377.06
2022-12-03T07:16:18.066Z,100379.16
2022-12-03T07:18:45.687Z,100374.41
2022-12-03T07:21:11.983Z,100370.53
2022-12-03T07:23:38.402Z,100379.25
2022-12-03T07:26:04.885Z,100383.63
2022-12-03T07:28:31.165Z,100391.56
2022-12-03T07:30:57.544Z,100389.75
2022-12-03T07:33:23.864Z,100396.78
2022-12-03T07:35:51.486Z,100396.09
2022-12-03T07:38:17.787Z,100402.16
2022-12-03T07:40:44.183Z,100395.09
2022-12-03T07:43:10.653Z,100394.25
2022-12-03T07:45:36.996Z,100396.16
2022-12-03T07:48:03.489Z,100390.50
2022-12-03T07:50:29.824Z,100386.72
2022-12-03T07:52:57.515Z,100381.09
2022-12-03T07:55:23.825Z,100384.63
2022-12-03T07:57:50.245Z,100383.63
2022-12-03T08:00:17.090Z,100386.31
2022-12-03T08:02:43.436Z,100390.00
2022-12-03T08:05:09.795Z,100388.88
2022-12-03T08:07:36.148Z,100384.50
2022-12-03T08:10:03.976Z,100386.03
2022-12-03T08:12:30.405Z,100388.97
2022-12-03T08:14:56.812Z,100396.75
2022-12-03T08:17:23.523Z,100400.97
2022-12-03T08:19:49.865Z,100405.50
2022-12-03T08:22:16.300Z,100406.34
2022-12-03T08:24:42.697Z,100410.75
2022-12-03T08:27:12.141Z,100396.59
2022-12-03T08:29:39.902Z,100407.94
2022-12-03T08:32:06.433Z,100411.47
2022-12-03T08:34:38.954Z,100396.75
2022-12-03T08:37:08.723Z,100399.22
2022-12-03T08:39:35.877Z,100391.06
2022-12-03T08:42:13.569Z,100401.53
2022-12-03T08:44:41.583Z,100390.66
2022-12-03T08:47:12.086Z,100395.03
2022-12-03T08:49:38.841Z,100391.50
2022-12-03T08:52:11.017Z,100385.16
2022-12-03T08:54:37.333Z,100384.88
2022-12-03T08:57:06.667Z,100385.16
2022-12-03T08:59:32.948Z,100392.50
2022-12-03T09:02:00.710Z,100390.81
2022-12-03T09:04:29.227Z,100390.19
2022-12-03T09:06:56.138Z,100388.31
2022-12-03T09:09:22.804Z,100397.63
2022-12-03T09:11:49.739Z,100393.84
2022-12-03T09:14:18.783Z,100389.06
2022-12-03T09:16:45.702Z,100390.81
2022-12-03T09:19:13.407Z,100390.81
2022-12-03T09:21:39.698Z,100393.50
2022-12-03T09:24:06.160Z,100391.66
2022-12-03T09:26:32.461Z,100395.88
2022-12-03T09:28:58.739Z,100387.13
2022-12-03T09:31:25.126Z,100388.97
2022-12-03T09:33:51.635Z,100391.91
2022-12-03T09:36:19.212Z,100387.31
2022-12-03T09:38:47.955Z,100390.59
2022-12-03T09:41:14.636Z,100386.66
2022-12-03T09:44:03.171Z,100393.00
2022-12-03T09:46:27.363Z,100396.44
2022-12-03T09:48:53.853Z,100395.69
2022-12-03T09:51:21.522Z,100393.75
2022-12-03T09:53:48.001Z,100389.06
2022-12-03T09:56:18.018Z,100395.03
2022-12-03T09:58:44.294Z,100390.50
2022-12-03T10:01:12.964Z,100389.66
2022-12-03T10:03:43.046Z,100383.59
2022-12-03T10:06:10.236Z,100390.84
2022-12-03T10:08:37.825Z,100391.56
2022-12-03T10:11:04.233Z,100386.81
2022-12-03T10:13:31.345Z,100384.72
2022-12-03T10:15:59.963Z,100386.41
2022-12-03T10:18:30.557Z,100380.06
2022-12-03T10:20:57.598Z,100381.03
2022-12-03T10:23:25.062Z,100365.09
2022-12-03T10:25:54.188Z,100361.41
2022-12-03T10:28:27.651Z,100363.25
2022-12-03T10:30:54.722Z,100356.91
2022-12-03T10:33:21.076Z,100353.03
2022-12-03T10:35:47.405Z,100355.97
2022-12-03T10:38:19.270Z,100351.34
2022-12-03T10:40:45.874Z,100353.63
2022-12-03T10:43:14.807Z,100351.94
2022-12-03T10:45:41.357Z,100347.56
2022-12-03T10:48:11.794Z,100348.41
2022-12-03T10:50:45.796Z,100340.22
2022-12-03T10:53:12.301Z,100334.00
2022-12-03T10:55:41.810Z,100332.31
2022-12-03T10:58:13.816Z,100335.97
2022-12-03T11:00:41.428Z,100338.59
2022-12-03T11:03:16.789Z,100324.78
2022-12-03T11:05:43.079Z,100325.53
2022-12-03T11:08:14.710Z,100325.66
2022-12-03T11:10:41.513Z,100321.97
2022-12-03T11:13:17.672Z,100322.56
2022-12-03T11:15:45.327Z,100317.34
2022-12-03T11:18:11.755Z,100314.66
2022-12-03T11:20:47.981Z,100317.19
2022-12-03T11:23:14.345Z,100310.03
2022-12-03T11:25:48.200Z,100310.13
2022-12-03T11:28:24.449Z,100300.34
2022-12-03T11:30:58.468Z,100302.19
2022-12-03T11:33:25.482Z,100295.44
2022-12-03T11:36:06.655Z,100295.44
2022-12-03T11:38:47.346Z,100285.56
2022-12-03T11:41:18.672Z,100283.72
2022-12-03T11:43:54.827Z,100287.09
2022-12-03T11:46:24.388Z,100282.34
2022-12-03T11:48:53.282Z,100285.31
2022-12-03T11:51:21.240Z,100284.31
2022-12-03T11:53:48.542Z,100276.97
2022-12-03T11:56:16.812Z,100279.66
2022-12-03T11:58:43.095Z,100276.97
2022-12-03T12:01:09.551Z,100273.13
2022-12-03T12:03:43.169Z,100271.59
2022-12-03T12:06:10.343Z,100263.13
2022-12-03T12:08:38.071Z,100256.78
2022-12-03T12:11:15.606Z,100265.81
2022-12-03T12:13:50.795Z,100254.81
2022-12-03T12:16:27.031Z,100255.66
2022-12-03T12:18:55.546Z,100252.97
2022-12-03T12:21:32.570Z,100251.41
2022-12-03T12:24:08.352Z,100245.88
2022-12-03T12:26:34.527Z,100247.31
2022-12-03T12:29:00.660Z,100240.84
2022-12-03T12:31:27.141Z,100240.94
2022-12-03T12:33:54.868Z,100252.41
2022-12-03T12:36:21.163Z,100244.22
2022-12-03T12:38:47.454Z,100238.00
2022-12-03T12:41:13.780Z,100232.63
2022-12-03T12:43:40.455Z,100234.22
2022-12-03T12:46:38.622Z,100228.84
2022-12-03T12:48:59.693Z,100223.63
2022-12-03T12:51:26.331Z,100211.13
2022-12-03T12:53:52.635Z,100211.03
2022-12-03T12:56:22.540Z,100211.75
2022-12-03T12:58:48.856Z,100210.50
2022-12-03T13:01:19.814Z,100209.50
2022-12-03T13:03:49.357Z,100200.47
2022-12-03T13:06:17.512Z,100195.25
2022-12-03T13:08:45.445Z,100194.25
2022-12-03T13:11:15.829Z,100197.94
2022-12-03T13:13:44.255Z,100187.06
2022-12-03T13:16:12.396Z,100187.19
2022-12-03T13:18:40.079Z,100197.66
2022-12-03T13:21:11.185Z,100198.78
2022-12-03T13:23:39.428Z,100204.91
2022-12-03T13:26:30.501Z,100199.31
2022-12-03T13:29:02.821Z,100202.72
2022-12-03T13:31:31.450Z,100190.00
2022-12-03T13:33:59.530Z,100193.69
2022-12-03T13:36:34.645Z,100182.84
2022-12-03T13:39:02.193Z,100183.53
2022-12-03T13:41:28.450Z,100185.50
2022-12-03T13:43:54.751Z,100185.06
2022-12-03T13:46:21.229Z,100182.75
2022-12-03T13:48:47.506Z,100180.69
2022-12-03T13:51:19.550Z,100180.41
2022-12-03T13:53:45.896Z,100167.13
2022-12-03T13:56:20.276Z,100167.97
2022-12-03T13:58:46.616Z,100171.53
2022-12-03T14:01:12.999Z,100173.22
2022-12-03T14:03:39.357Z,100179.28
2022-12-03T14:06:06.433Z,100179.44
2022-12-03T14:08:32.759Z,100177.59
2022-12-03T14:11:00.892Z,100168.13
2022-12-03T14:13:28.847Z,100181.19
2022-12-03T14:15:55.406Z,100168.34
2022-12-03T14:18:22.007Z,100162.88
2022-12-03T14:20:48.377Z,100160.09
2022-12-03T14:23:14.884Z,100161.78
2022-12-03T14:25:41.239Z,100168.84
2022-12-03T14:28:07.572Z,100160.81
2022-12-03T14:30:35.189Z,100161.66
2022-12-03T14:33:01.473Z,100165.19
2022-12-03T14:35:28.060Z,100167.72
2022-12-03T14:37:54.467Z,100165.19
2022-12-03T14:40:21.891Z,100159.66
2022-12-03T14:42:48.624Z,100158.91
2022-12-03T14:45:15.266Z,100160.72
2022-12-03T14:47:42.918Z,100158.41
2022-12-03T14:50:09.570Z,100154.72
2022-12-03T14:52:35.847Z,100154.84
2022-12-03T14:55:02.168Z,100155.78
2022-12-03T14:57:28.451Z,100154.84
2022-12-03T14:59:54.939Z,100146.78
2022-12-03T15:02:21.459Z,100159.25
2022-12-03T15:04:49.113Z,100161.06
2022-12-03T15:07:15.411Z,100154.72
2022-12-03T15:09:41.839Z,100159.94
2022-12-03T15:12:08.174Z,100159.63
2022-12-03T15:14:34.515Z,100153.81
2022-12-03T15:17:00.881Z,100151.84
2022-12-03T15:19:27.213Z,100148.91
2022-12-03T15:21:54.933Z,100148.91
2022-12-03T15:24:21.258Z,100151.56
2022-12-03T15:26:47.551Z,100150.59
2022-12-03T15:29:13.858Z,100154.94
2022-12-03T15:31:40.184Z,100156.63
2022-12-03T15:34:06.542Z,100150.44
2022-12-03T15:36:32.802Z,100145.91
2022-12-03T15:39:00.423Z,100143.25
2022-12-03T15:41:26.853Z,100144.00
2022-12-03T15:43:53.129Z,100135.19
2022-12-03T15:46:19.521Z,100135.34
2022-12-03T15:48:45.885Z,100128.69
2022-12-03T15:51:12.228Z,100133.34
2022-12-03T15:53:39.028Z,100127.72
2022-12-03T15:56:06.939Z,100122.09
2022-12-03T15:58:33.268Z,100122.94
2022-12-03T16:00:59.600Z,100122.78
2022-12-03T16:03:26.090Z,100126.47
2022-12-03T16:05:52.419Z,100133.50
2022-12-03T16:08:18.881Z,100129.97
2022-12-03T16:10:45.183Z,100132.66
2022-12-03T16:13:12.847Z,100121.91
2022-12-03T16:15:39.187Z,100119.22
2022-12-03T16:18:05.539Z,100123.31
2022-12-03T16:20:31.909Z,100117.97
2022-12-03T16:22:58.229Z,100113.31
2022-12-03T16:25:24.769Z,100117.84
2022-12-03T16:27:51.074Z,100130.13
2022-12-03T16:30:18.676Z,100122.09
2022-12-03T16:32:44.970Z,100124.03
2022-12-03T16:35:11.284Z,100124.78
2022-12-03T16:37:37.622Z,100118.41
2022-12-03T16:40:04.173Z,100119.41
2022-12-03T16:42:30.448Z,100120.25
2022-12-03T16:44:56.820Z,100110.50
2022-12-03T16:47:28.044Z,100105.97
2022-12-03T16:49:57.025Z,100106.53
2022-12-03T16:52:23.368Z,100104.56
2022-12-03T16:54:49.708Z,100115.16
2022-12-03T16:57:16.165Z,100113.47
2022-12-03T16:59:42.483Z,100107.22
2022-12-03T17:02:10.100Z,100106.97
2022-12-03T17:04:37.693Z,100109.78
2022-12-03T17:07:03.980Z,100106.97
2022-12-03T17:09:30.261Z,100111.22
2022-12-03T17:11:56.533Z,100109.78
2022-12-03T17:14:22.906Z,100105.25
2022-12-03T17:16:49.385Z,100102.28
2022-12-03T17:19:16.141Z,100101.19
2022-12-03T17:21:44.288Z,100096.50
2022-12-03T17:24:10.594Z,100098.22
2022-12-03T17:26:36.925Z,100092.03
2022-12-03T17:29:03.365Z,100094.56
2022-12-03T17:31:29.785Z,100095.66
2022-12-03T17:33:56.174Z,100097.38
2022-12-03T17:36:22.618Z,100094.72
2022-12-03T17:38:50.260Z,100090.31
2022-12-03T17:41:16.670Z,100085.94
2022-12-03T17:43:42.976Z,100082.97
2022-12-03T17:46:09.367Z,100092.00
2022-12-03T17:48:35.863Z,100082.81
2022-12-03T17:51:02.169Z,100090.72
2022-12-03T17:53:28.605Z,100071.97
2022-12-03T17:55:56.223Z,100074.66
2022-12-03T17:58:22.567Z,100086.94
2022-12-03T18:00:48.970Z,100079.00
2022-12-03T18:03:15.276Z,100071.97
2022-12-03T18:05:41.576Z,100079.84
2022-12-03T18:08:07.944Z,100075.22
2022-12-03T18:10:34.340Z,100089.63
2022-12-03T18:13:02.501Z,100089.16
2022-12-03T18:15:29.012Z,100084.34
2022-12-03T18:17:55.338Z,100081.25
2022-12-03T18:20:21.741Z,100084.63
2022-12-03T18:22:48.069Z,100077.59
2022-12-03T18:25:14.501Z,100081.97
2022-12-03T18:27:40.772Z,100065.75
2022-12-03T18:30:08.910Z,100071.97
2022-12-03T18:32:35.343Z,100064.75
2022-12-03T18:35:01.624Z,100060.25
2022-12-03T18:37:28.719Z,100058.41
2022-12-03T18:39:56.296Z,100070.84
2022-12-03T18:42:23.309Z,100065.50
2022-12-03T18:44:50.634Z,100073.53
2022-12-03T18:47:19.526Z,100077.88
2022-12-03T18:49:45.957Z,100076.19
2022-12-03T18:52:12.806Z,100069.69
2022-12-03T18:54:39.480Z,100066.03
2022-12-03T18:57:05.831Z,100065.19
2022-12-03T18:59:32.142Z,100057.00
2022-12-03T19:01:58.535Z,100069.56
2022-12-03T19:04:26.475Z,100064.75
2022-12-03T19:06:53.017Z,100064.91
2022-12-03T19:09:19.325Z,100072.81
2022-12-03T19:11:45.634Z,100073.66
2022-12-03T19:14:11.926Z,100081.00
2022-12-03T19:16:38.754Z,100089.16
2022-12-03T19:19:05.548Z,100091.00
2022-12-03T19:21:33.994Z,100083.75
2022-12-03T19:24:23.262Z,100088.00
2022-12-03T19:26:47.039Z,100089.31
2022-12-03T19:29:13.358Z,100079.56
2022-12-03T19:31:39.720Z,100082.09
2022-12-03T19:34:06.127Z,100076.19
2022-12-03T19:36:33.872Z,100065.19
2022-12-03T19:39:00.648Z,100069.69
2022-12-03T19:41:28.419Z,100064.91
2022-12-03T19:43:55.436Z,100071.25
2022-12-03T19:46:22.896Z,100067.72
2022-12-03T19:48:49.356Z,100064.03
2022-12-03T19:51:33.692Z,100066.16
2022-12-03T19:54:02.733Z,100073.19
2022-12-03T19:56:29.043Z,100078.28
2022-12-03T19:58:55.770Z,100071.81
2022-12-03T20:01:23.347Z,100078.84
2022-12-03T20:03:50.958Z,100070.81
2022-12-03T20:06:18.628Z,100075.34
2022-12-03T20:08:45.525Z,100068.00
2022-12-03T20:11:14.267Z,100080.53
2022-12-03T20:13:41.021Z,100076.03
2022-12-03T20:16:08.358Z,100075.19
2022-12-03T20:18:34.981Z,100073.34
2022-12-03T20:21:01.660Z,100065.19
2022-12-03T20:23:28.090Z,100072.19
2022-12-03T20:25:54.496Z,100067.09
2022-12-03T20:28:22.140Z,100074.59
2022-12-03T20:30:56.827Z,100073.75
2022-12-03T20:33:23.139Z,100070.94
2022-12-03T20:35:51.119Z,100065.72
2022-12-03T20:38:17.396Z,100063.88
2022-12-03T20:40:43.868Z,100048.66
2022-12-03T20:43:10.170Z,100045.84
2022-12-03T20:45:37.854Z,100043.03
2022-12-03T20:48:04.408Z,100042.34
2022-12-03T20:50:30.743Z,100040.34
2022-12-03T20:53:22.669Z,100044.13
2022-12-03T20:55:43.279Z,100054.84
2022-12-03T20:58:09.684Z,100057.25
2022-12-03T21:00:36.049Z,100062.47
2022-12-03T21:03:03.736Z,100055.00
2022-12-03T21:05:30.087Z,100055.00
2022-12-03T21:07:56.493Z,100065.72
2022-12-03T21:10:22.831Z,100052.31
2022-12-03T21:12:49.298Z,100040.75
2022-12-03T21:15:15.797Z,100039.78
2022-12-03T21:17:42.098Z,100033.41
2022-12-03T21:20:09.932Z,100028.94
2022-12-03T21:22:36.230Z,100022.69
2022-12-03T21:25:02.554Z,100034.28
2022-12-03T21:27:28.850Z,100029.59
2022-12-03T21:29:55.588Z,100029.75
2022-12-03T21:32:22.184Z,100015.22
2022-12-03T21:34:48.495Z,100019.59
2022-12-03T21:37:16.066Z,100014.97
2022-12-03T21:39:42.412Z,100017.75
2022-12-03T21:42:34.947Z,100017.50
2022-12-03T21:44:55.109Z,100008.72
2022-12-03T21:47:21.548Z,100007.88
2022-12-03T21:49:47.863Z,100009.72
2022-12-03T21:52:14.207Z,100006.19
2022-12-03T21:54:41.786Z,100014.09
2022-12-03T21:57:08.089Z,100004.25
2022-12-03T21:59:34.410Z,99999.72
2022-12-03T22:02:00.899Z,100004.22
2022-12-03T22:04:27.204Z,99999.53
2022-12-03T22:06:54.291Z,100005.63
2022-12-03T22:09:26.287Z,100001.94
2022-12-03T22:11:54.371Z,100001.00
2022-12-03T22:14:20.661Z,100001.00
2022-12-03T22:16:47.131Z,100006.03
2022-12-03T22:19:13.410Z,100010.44
2022-12-03T22:21:39.712Z,100006.78
2022-12-03T22:24:06.187Z,100011.41
2022-12-03T22:26:35.133Z,100017.63
2022-12-03T22:29:02.932Z,100009.88
2022-12-03T22:31:29.321Z,100009.84
2022-12-03T22:33:55.782Z,100006.03
2022-12-03T22:36:22.161Z,100009.28
2022-12-03T22:38:48.552Z,100008.31
2022-12-03T22:41:15.158Z,100016.34
2022-12-03T22:43:41.473Z,100016.34
2022-12-03T22:46:09.312Z,100012.66
2022-12-03T22:48:36.254Z,100015.91
2022-12-03T22:51:03.038Z,100009.88
2022-12-03T22:53:29.349Z,100016.06
2022-12-03T22:55:56.347Z,100020.44
2022-12-03T22:58:22.870Z,100011.56
2022-12-03T23:00:49.227Z,100002.53
2022-12-03T23:03:17.293Z,99998.16
2022-12-03T23:05:43.710Z,99997.44
2022-12-03T23:08:11.336Z,100003.38
2022-12-03T23:10:38.880Z,99997.84
2022-12-03T23:13:05.736Z,99989.81
2022-12-03T23:15:32.201Z,99995.06
2022-12-03T23:17:58.587Z,99992.38
2022-12-03T23:20:26.600Z,99992.38
2022-12-03T23:22:53.239Z,99996.00
2022-12-03T23:25:20.067Z,100005.63
2022-12-03T23:27:46.819Z,99995.75
2022-12-03T23:30:13.985Z,99999.28
2022-12-03T23:32:40.702Z,99994.63
2022-12-03T23:35:07.416Z,99991.09
2022-12-03T23:37:35.171Z,99984.91
2022-12-03T23:40:01.498Z,99978.53
2022-12-03T23:42:27.787Z,99983.03
2022-12-03T23:44:54.180Z,99982.88
2022-12-03T23:47:20.526Z,99987.03
2022-12-03T23:49:46.848Z,99988.97
2022-12-03T23:52:13.264Z,99987.13
2022-12-03T23:54:40.849Z,99982.50
2022-12-03T23:57:07.108Z,99979.09
2022-12-03T23:59:33.438Z,99979.81
